Budapest Bridge — VRIZ5 — position and weather

sailwx.info

Track history (hours):
 
Tides and Currents Weather Stations Pressure Air Temp Water Temp Dewpoint Dewpoint Depression Visibility Wind Speed Wind Dir Waves Ship Positions

Budapest Bridge

Last reported at 2017-May-27 01:11 UTC. Time now 2017-May-27 17:39 UTC.
Position N 35°59' W 006°08'.

Length 268 m; draft 10.9 m.

Type: Ship (hazmat cat A). MMSI: 477434200.

Date/timePositionNaut miles runAvg speedWind from/ knotsBaromVisibWave heightAir tempDewpointWater temp
2017-May-27 01:11N 35°59' W 006°08'918.6
2017-May-27 00:42N 35°58' W 005°56'518.9
2017-May-27 00:27N 35°58' W 005°51'919.5
2017-May-27 00:00N 35°58' W 005°40'917.5
2017-May-26 23:30N 35°60' W 005°29'815.9
2017-May-26 23:00N 36°02' W 005°20'917.3
2017-May-26 22:30N 36°04' W 005°10'22017.1
2017-May-26 09:36N 37°22' W 000°52'418.0
2017-May-26 09:24N 37°24' W 000°49'818.0
2017-May-26 08:56N 37°29' W 000°41'818.2
2017-May-26 08:30N 37°35' W 000°33'917.8
2017-May-26 08:00N 37°42' W 000°27'917.8
2017-May-26 07:30N 37°50' W 000°23'917.7
2017-May-26 07:00N 37°57' W 000°16'917.7
2017-May-26 06:30N 38°04' W 000°09'917.9
2017-May-26 06:00N 38°12' W 000°03'1018.1
2017-May-26 05:28N 38°20' E 000°04'918.3
2017-May-26 05:00N 38°28' E 000°09'1517.9
2017-May-26 04:11N 38°40' E 000°20'318.0
2017-May-26 04:00N 38°42' E 000°22'918.1
2017-May-26 03:29N 38°50' E 000°30'1118.3
2017-May-26 02:53N 38°58' E 000°38'718.4
2017-May-26 02:30N 39°04' E 000°44'918.3
2017-May-26 02:00N 39°11' E 000°51'918.3
2017-May-26 01:30N 39°18' E 000°58'918.1
2017-May-26 01:00N 39°25' E 001°06'918.1
2017-May-26 00:30N 39°32' E 001°13'917.9
2017-May-26 00:00N 39°40' E 001°20'917.7
2017-May-25 23:30N 39°46' E 001°28'918.0
2017-May-25 23:00N 39°53' E 001°36'918.0
2017-May-25 22:30N 39°59' E 001°44'918.1
2017-May-25 22:00N 40°06' E 001°51'918.1
2017-May-25 21:30N 40°13' E 001°59'918.1
2017-May-25 21:00N 40°19' E 002°08'918.4
2017-May-25 20:30N 40°26' E 002°15'918.2
2017-May-25 20:00N 40°34' E 002°21'918.0
2017-May-25 19:30N 40°41' E 002°28'917.8
2017-May-25 19:00N 40°48' E 002°36'917.7
2017-May-25 18:30N 40°55' E 002°43'917.8
2017-May-25 18:00N 41°02' E 002°50'918.0
2017-May-25 17:30N 41°09' E 002°58'918.1
2017-May-25 17:00N 41°16' E 003°05'918.1
2017-May-25 16:30N 41°23' E 003°13'918.2
2017-May-25 16:00N 41°31' E 003°20'918.0
2017-May-25 15:30N 41°37' E 003°28'918.1
2017-May-25 15:00N 41°44' E 003°36'1918.2
2017-May-25 13:59N 41°59' E 003°51'918.3
2017-May-25 13:30N 42°06' E 003°58'918.2
2017-May-25 13:00N 42°14' E 004°05'1018.0
2017-May-25 12:28N 42°22' E 004°13'918.2
2017-May-25 11:57N 42°29' E 004°20'818.4
2017-May-25 11:29N 42°36' E 004°26'1018.7
2017-May-25 10:57N 42°45' E 004°34'818.5
2017-May-25 10:30N 42°51' E 004°41'1218.1
2017-May-25 09:51N 43°01' E 004°50'617.9
2017-May-25 09:30N 43°06' E 004°55'917.1
2017-May-25 08:59N 43°14' E 005°00'816.5
2017-May-25 08:30N 43°22' E 004°58'510.3
2017-May-25 08:00N 43°24' E 004°52'0 0.7
2017-May-25 07:27N 43°24' E 004°51'0 0.0
2017-May-25 06:54N 43°24' E 004°51'0 0.0
2017-May-25 06:18N 43°24' E 004°51'0 0.0
2017-May-25 05:57N 43°24' E 004°51'0 0.0
2017-May-25 05:18N 43°24' E 004°51'0 0.0
2017-May-25 04:48N 43°24' E 004°51'0 0.0
2017-May-25 04:21N 43°24' E 004°51'0 0.0
2017-May-25 04:00N 43°24' E 004°51'0 0.0
2017-May-25 03:30N 43°24' E 004°51'0 0.0
2017-May-25 02:57N 43°24' E 004°51'0 0.0
2017-May-25 00:57N 43°24' E 004°51'0 0.0
2017-May-25 00:27N 43°24' E 004°51'0 0.0
2017-May-24 23:57N 43°24' E 004°51'0 0.0
2017-May-24 23:18N 43°24' E 004°51'0 0.0
2017-May-24 22:27N 43°24' E 004°51'0 0.0
2017-May-24 22:00N 43°24' E 004°51'0 0.0
2017-May-24 21:24N 43°24' E 004°51'0 0.0
2017-May-24 21:00N 43°24' E 004°51'0 0.0
2017-May-24 20:27N 43°24' E 004°51'0 0.0
2017-May-24 20:00N 43°24' E 004°51'0 0.0
2017-May-24 19:24N 43°24' E 004°51'0 0.0
2017-May-24 19:00N 43°24' E 004°51'0 0.0
2017-May-24 18:30N 43°24' E 004°51'0 0.0
2017-May-24 17:48N 43°24' E 004°51'0 0.0
2017-May-24 16:30N 43°24' E 004°51'0 0.0
2017-May-24 16:00N 43°24' E 004°51'0 0.0
2017-May-24 15:30N 43°24' E 004°51'0 0.0
2017-May-24 14:57N 43°24' E 004°51'0 0.0
2017-May-24 14:30N 43°24' E 004°51'0 0.0
2017-May-24 13:30N 43°24' E 004°51'0 0.0
2017-May-24 13:00N 43°24' E 004°51'0 0.0
2017-May-24 12:30N 43°24' E 004°51'0 0.0
2017-May-24 12:00N 43°24' E 004°51'0 0.0
2017-May-24 11:30N 43°24' E 004°51'0 0.0
2017-May-24 11:00N 43°24' E 004°51'0 0.0
2017-May-24 10:30N 43°24' E 004°51'0 0.0
2017-May-24 05:45N 43°24' E 004°51'0 0.0
2017-May-24 05:30N 43°24' E 004°51'0 0.0
2017-May-24 05:00N 43°24' E 004°51'0 0.0
2017-May-24 04:30N 43°24' E 004°51'0 0.0
2017-May-24 04:00N 43°24' E 004°51'0 0.0
2017-May-24 03:30N 43°24' E 004°51'0 0.0
2017-May-24 03:00N 43°24' E 004°51'0 0.0
2017-May-24 02:30N 43°24' E 004°51'0 0.0
2017-May-24 02:00N 43°24' E 004°51'0 0.0
2017-May-24 01:30N 43°24' E 004°51'0 0.0
2017-May-24 01:00N 43°24' E 004°51'0 0.0
2017-May-24 00:30N 43°24' E 004°51'0 0.0
2017-May-24 00:00N 43°24' E 004°51'0 0.0
2017-May-23 23:30N 43°24' E 004°51'0 0.0
2017-May-23 23:00N 43°24' E 004°51'0 0.0
2017-May-23 22:30N 43°24' E 004°51'0 0.0
2017-May-23 22:00N 43°24' E 004°51'0 0.0
2017-May-23 21:30N 43°24' E 004°51'0 0.0
2017-May-23 21:00N 43°24' E 004°51'0 0.0
2017-May-23 20:24N 43°24' E 004°51'1 1.4
2017-May-23 20:01N 43°24' E 004°52'510.9
2017-May-23 19:31N 43°22' E 004°58'4 7.1
2017-May-23 19:00N 43°18' E 004°60'5 9.5
2017-May-23 18:31N 43°14' E 005°02'510.4
2017-May-23 18:01N 43°09' E 005°03'5 9.8
2017-May-23 17:30N 43°04' E 005°01'5 9.5
2017-May-23 17:01N 43°03' E 005°07'612.2
2017-May-23 16:30N 43°03' E 005°16'612.1
2017-May-23 16:01N 43°03' E 005°24'612.2
2017-May-23 15:31N 43°01' E 005°31'612.2
2017-May-23 15:00N 42°58' E 005°39'1312.5
2017-May-23 14:00N 42°52' E 005°54'3012.4
2017-May-23 11:36N 42°51' E 006°35'112.8
2017-May-23 11:30N 42°52' E 006°36'612.9
2017-May-23 11:00N 42°55' E 006°43'612.7
2017-May-23 10:30N 42°59' E 006°50'612.6
2017-May-23 10:00N 43°03' E 006°57'612.5
2017-May-23 09:30N 43°06' E 007°04'612.4
2017-May-23 09:00N 43°10' E 007°11'612.3
2017-May-23 08:30N 43°14' E 007°18'612.2
2017-May-23 08:00N 43°17' E 007°25'612.2
2017-May-23 07:30N 43°20' E 007°32'612.3
2017-May-23 07:00N 43°24' E 007°39'612.1
2017-May-23 06:30N 43°27' E 007°46'612.3
2017-May-23 06:00N 43°31' E 007°53'612.5
2017-May-23 05:30N 43°35' E 007°60'712.6
2017-May-23 04:57N 43°38' E 008°08'612.7
2017-May-23 04:30N 43°41' E 008°15'612.8
2017-May-23 04:00N 43°45' E 008°22'612.3
2017-May-23 03:30N 43°49' E 008°28'612.6
2017-May-23 03:00N 43°55' E 008°33'612.4
2017-May-23 02:30N 43°60' E 008°38'612.0
2017-May-23 02:00N 44°05' E 008°42'611.8
2017-May-23 01:30N 44°09' E 008°47'611.8
2017-May-23 01:00N 44°14' E 008°52'611.8
2017-May-23 00:30N 44°19' E 008°57'5 9.3
2017-May-23 00:00N 44°24' E 008°56'2 3.4
2017-May-22 23:30N 44°24' E 008°54'0 0.0
2017-May-22 23:00N 44°24' E 008°54'0 0.0
2017-May-22 22:30N 44°24' E 008°54'0 0.0
2017-May-22 22:00N 44°24' E 008°54'0 0.0
2017-May-22 21:30N 44°24' E 008°54'0 0.0
2017-May-22 21:00N 44°24' E 008°54'0 0.0
2017-May-22 20:30N 44°24' E 008°54'0 0.0
2017-May-22 20:00N 44°24' E 008°54'0 0.0
2017-May-22 19:30N 44°24' E 008°54'0 0.0
2017-May-22 19:00N 44°24' E 008°54'0 0.0
2017-May-22 18:30N 44°24' E 008°54'0 0.0
2017-May-22 18:00N 44°24' E 008°54'0 0.0
2017-May-22 17:24N 44°24' E 008°54'0 0.0
2017-May-22 16:57N 44°24' E 008°54'0 0.0
2017-May-22 16:30N 44°24' E 008°54'0 0.0
2017-May-22 16:00N 44°24' E 008°54'0 0.0
2017-May-22 15:30N 44°24' E 008°54'0 0.0
2017-May-22 14:57N 44°24' E 008°54'0 0.0
2017-May-22 13:57N 44°24' E 008°54'0 0.0
2017-May-22 13:30N 44°24' E 008°54'0 0.0
2017-May-22 13:00N 44°24' E 008°54'0 0.0
2017-May-22 12:30N 44°24' E 008°54'0 0.0
2017-May-22 12:00N 44°24' E 008°54'0 0.0
2017-May-22 11:30N 44°24' E 008°54'0 0.0
2017-May-22 11:00N 44°24' E 008°54'0 0.0
2017-May-22 10:30N 44°24' E 008°54'0 0.0
2017-May-22 10:00N 44°24' E 008°54'0 0.0
2017-May-22 09:30N 44°24' E 008°54'0 0.0
2017-May-22 09:00N 44°24' E 008°54'0 0.0
2017-May-22 08:24N 44°24' E 008°54'0 0.0
2017-May-22 08:00N 44°24' E 008°54'0 0.0
2017-May-22 07:30N 44°24' E 008°54'0 0.0
2017-May-22 07:00N 44°24' E 008°54'0 0.0
2017-May-22 06:30N 44°24' E 008°54'0 0.0
2017-May-22 06:00N 44°24' E 008°54'0 0.0
2017-May-22 05:30N 44°24' E 008°54'0 1.0
2017-May-22 05:00N 44°24' E 008°54'2 3.1
2017-May-22 04:30N 44°23' E 008°56'2 5.0
2017-May-22 04:00N 44°21' E 008°58'510.5
2017-May-22 03:30N 44°17' E 009°01'1 1.8
2017-May-22 03:00N 44°16' E 009°02'0 0.4
2017-May-22 02:30N 44°16' E 009°02'0 0.2
2017-May-22 02:00N 44°15' E 009°02'0 0.1
2017-May-22 01:30N 44°15' E 009°02'0 0.1
2017-May-22 01:00N 44°15' E 009°02'0 0.2
2017-May-22 00:30N 44°16' E 009°02'0 0.3
2017-May-22 00:00N 44°16' E 009°02'0 0.4
2017-May-21 23:30N 44°16' E 009°02'0 0.8
2017-May-21 23:00N 44°16' E 009°02'4 7.7
2017-May-21 22:30N 44°14' E 009°06'612.2
2017-May-21 22:00N 44°11' E 009°13'612.1
2017-May-21 21:30N 44°08' E 009°21'612.1
2017-May-21 21:00N 44°05' E 009°28'612.2
2017-May-21 20:30N 44°02' E 009°36'612.0
2017-May-21 20:00N 43°60' E 009°43'611.7
2017-May-21 19:31N 43°59' E 009°51'611.4
2017-May-21 19:00N 44°05' E 009°51'1 2.5
2017-May-21 18:29N 44°06' E 009°51'0 0.0
2017-May-21 17:50N 44°06' E 009°51'0 0.0
2017-May-21 17:29N 44°06' E 009°51'0 0.0
2017-May-21 16:59N 44°06' E 009°51'0 0.0
2017-May-21 16:29N 44°06' E 009°51'0 0.0
2017-May-21 15:56N 44°06' E 009°51'0 0.0
2017-May-21 15:26N 44°06' E 009°51'0 0.0
2017-May-21 14:59N 44°06' E 009°51'0 0.0
2017-May-21 14:29N 44°06' E 009°51'0 0.0
2017-May-21 13:29N 44°06' E 009°51'0 0.0
2017-May-21 12:59N 44°06' E 009°51'0 0.0
2017-May-21 12:29N 44°06' E 009°51'0 0.0
2017-May-21 11:59N 44°06' E 009°51'0 0.0
2017-May-21 11:29N 44°06' E 009°51'0 0.0
2017-May-21 10:59N 44°06' E 009°51'0 0.0
2017-May-21 10:29N 44°06' E 009°51'0 0.0
2017-May-21 09:59N 44°06' E 009°51'0 0.0
2017-May-21 09:29N 44°06' E 009°51'0 0.0
2017-May-21 08:59N 44°06' E 009°51'0 0.0
2017-May-21 08:29N 44°06' E 009°51'0 0.0
2017-May-21 07:50N 44°06' E 009°51'0 0.0
2017-May-21 07:29N 44°06' E 009°51'0 0.0
2017-May-21 06:53N 44°06' E 009°51'0 0.0
2017-May-21 06:29N 44°06' E 009°51'0 0.0
2017-May-21 05:59N 44°06' E 009°51'0 0.6
2017-May-21 05:31N 44°06' E 009°51'4 7.0
2017-May-21 05:00N 44°03' E 009°52'5 9.2
2017-May-21 04:30N 43°59' E 009°51'0 0.5
2017-May-21 04:00N 43°58' E 009°51'0 0.1
2017-May-21 03:30N 43°58' E 009°51'0 0.1
2017-May-21 03:00N 43°58' E 009°51'0 0.1
2017-May-21 02:30N 43°58' E 009°51'0 0.1
2017-May-21 02:00N 43°58' E 009°51'0 0.1
2017-May-21 01:30N 43°58' E 009°51'0 0.1
2017-May-21 01:00N 43°58' E 009°51'0 0.0
2017-May-21 00:30N 43°58' E 009°51'0 0.0
2017-May-21 00:00N 43°58' E 009°51'0 0.1
2017-May-20 23:30N 43°58' E 009°51'0 0.1
2017-May-20 23:00N 43°58' E 009°51'0 0.0
2017-May-20 22:30N 43°58' E 009°51'0 0.0
2017-May-20 22:00N 43°58' E 009°51'0 0.0
2017-May-20 21:30N 43°58' E 009°51'0 0.0
2017-May-20 21:00N 43°58' E 009°51'0 0.0
2017-May-20 20:30N 43°58' E 009°51'0 0.0
2017-May-20 20:00N 43°58' E 009°51'0 0.0
2017-May-20 19:30N 43°58' E 009°51'0 0.0
2017-May-20 19:00N 43°58' E 009°51'0 0.0
2017-May-20 18:27N 43°58' E 009°51'0 0.0
2017-May-20 18:00N 43°58' E 009°51'0 0.0
2017-May-20 17:30N 43°58' E 009°51'0 0.0
2017-May-20 17:00N 43°58' E 009°51'0 0.0
2017-May-20 16:27N 43°58' E 009°51'0 0.0
2017-May-20 16:00N 43°58' E 009°51'0 0.1
2017-May-20 15:30N 43°58' E 009°51'0 0.0
2017-May-20 15:00N 43°58' E 009°51'0 0.1
2017-May-20 14:30N 43°58' E 009°51'0 0.1
2017-May-20 13:30N 43°58' E 009°51'0 0.1
2017-May-20 13:00N 43°58' E 009°51'2 3.2
2017-May-20 12:30N 43°57' E 009°51'612.6
2017-May-20 12:00N 43°51' E 009°52'612.5
2017-May-20 11:30N 43°44' E 009°52'612.3
2017-May-20 11:00N 43°38' E 009°52'510.7
2017-May-20 10:30N 43°33' E 009°53'510.8
2017-May-20 10:00N 43°31' E 010°00'510.3
2017-May-20 09:30N 43°30' E 010°07'510.7
2017-May-20 09:01N 43°32' E 010°14'3 6.1
2017-May-20 08:30N 43°33' E 010°17'2 3.0
2017-May-20 07:59N 43°35' E 010°18'0 0.0
2017-May-20 07:29N 43°35' E 010°18'0 0.0
2017-May-20 06:59N 43°35' E 010°18'0 0.0
2017-May-20 06:29N 43°35' E 010°18'0 0.0
2017-May-20 05:59N 43°35' E 010°18'0 0.0
2017-May-20 05:29N 43°35' E 010°18'0 0.0
2017-May-20 04:59N 43°35' E 010°18'0 0.0
2017-May-20 04:29N 43°35' E 010°18'0 0.0
2017-May-20 03:59N 43°35' E 010°18'0 0.0
2017-May-20 03:26N 43°35' E 010°18'0 0.0
2017-May-20 02:59N 43°35' E 010°18'0 0.0
2017-May-20 02:29N 43°35' E 010°18'0 0.0
2017-May-20 01:56N 43°35' E 010°18'0 0.0
2017-May-20 01:26N 43°35' E 010°18'0 0.0
2017-May-20 00:59N 43°35' E 010°18'0 0.0
2017-May-20 00:29N 43°35' E 010°18'0 0.0
2017-May-19 23:59N 43°35' E 010°18'0 0.0
2017-May-19 23:29N 43°35' E 010°18'0 0.0
2017-May-19 22:59N 43°35' E 010°18'0 0.0
2017-May-19 22:29N 43°35' E 010°18'0 0.0
2017-May-19 21:59N 43°35' E 010°18'0 0.0
2017-May-19 21:26N 43°35' E 010°18'0 0.0
2017-May-19 20:59N 43°35' E 010°18'0 0.0
2017-May-19 20:29N 43°35' E 010°18'0 0.0
2017-May-19 19:59N 43°35' E 010°18'0 0.0
2017-May-19 19:29N 43°35' E 010°18'0 0.0
2017-May-19 18:59N 43°35' E 010°18'0 0.0
2017-May-19 18:29N 43°35' E 010°18'0 0.0
2017-May-19 17:59N 43°35' E 010°18'0 0.0
2017-May-19 17:26N 43°35' E 010°18'0 0.0
2017-May-19 16:59N 43°35' E 010°18'0 0.0
2017-May-19 16:29N 43°35' E 010°18'0 0.0
2017-May-19 15:59N 43°35' E 010°18'1 2.5
2017-May-19 15:30N 43°34' E 010°18'3 5.4
2017-May-19 15:00N 43°31' E 010°16'1 1.3
2017-May-19 14:00N 43°30' E 010°14'1 2.3
2017-May-19 13:30N 43°30' E 010°13'815.1
2017-May-19 13:00N 43°22' E 010°10'816.5
2017-May-19 12:30N 43°15' E 010°07'816.4
2017-May-19 12:00N 43°07' E 010°03'816.7
2017-May-19 11:30N 42°59' E 009°59'916.7
2017-May-19 10:58N 42°50' E 009°55'1316.5
2017-May-19 10:10N 42°38' E 009°51'617.1
2017-May-19 09:49N 42°32' E 009°49'617.7
2017-May-19 09:30N 42°27' E 009°52'917.7
2017-May-19 08:58N 42°19' E 009°59'917.5
2017-May-19 08:26N 42°13' E 010°09'817.9
2017-May-19 08:00N 42°09' E 010°18'918.1
2017-May-19 07:29N 42°03' E 010°28'918.2
2017-May-19 07:00N 41°58' E 010°38'918.0
2017-May-19 06:30N 41°53' E 010°48'1017.9
2017-May-19 05:57N 41°47' E 010°59'1317.6
2017-May-19 05:12N 41°40' E 011°13'417.8
2017-May-19 05:00N 41°38' E 011°17'917.5
2017-May-19 04:30N 41°32' E 011°26'917.6
2017-May-19 04:00N 41°28' E 011°36'917.7
2017-May-19 03:28N 41°23' E 011°47'817.7
2017-May-19 03:00N 41°17' E 011°55'917.8
2017-May-19 02:30N 41°12' E 012°05'917.7
2017-May-19 02:00N 41°07' E 012°14'917.7
2017-May-19 01:30N 41°01' E 012°23'917.5
2017-May-19 01:00N 40°56' E 012°33'917.7
2017-May-19 00:30N 40°51' E 012°42'917.6
2017-May-19 00:00N 40°46' E 012°52'3817.5
2017-May-18 21:48N 40°34' E 013°40'717.1
2017-May-18 21:24N 40°32' E 013°49'717.5
2017-May-18 20:59N 40°29' E 013°58'1017.5
2017-May-18 20:25N 40°28' E 014°10'817.7
2017-May-18 20:00N 40°30' E 014°20'23 1.1
2017-May-17 22:42N 40°19' E 013°53'316.0
2017-May-17 22:30N 40°18' E 013°49'916.3
2017-May-17 21:58N 40°15' E 013°39'816.0
2017-May-17 21:30N 40°12' E 013°30'816.1
2017-May-17 21:00N 40°08' E 013°20'816.3
2017-May-17 20:29N 40°05' E 013°10'816.3
2017-May-17 20:00N 40°02' E 013°01'916.2
2017-May-17 19:28N 39°58' E 012°50'816.4
2017-May-17 19:00N 39°55' E 012°41'1016.6
2017-May-17 18:24N 39°51' E 012°29'716.4
2017-May-17 18:00N 39°49' E 012°21'816.4
2017-May-17 17:30N 39°45' E 012°12'816.5
2017-May-17 17:00N 39°42' E 012°02'916.5
2017-May-17 16:27N 39°38' E 011°51'816.6
2017-May-17 15:59N 39°35' E 011°42'816.7
2017-May-17 15:29N 39°31' E 011°32'1018.3
2017-May-17 14:57N 39°27' E 011°20'1516.1
2017-May-17 14:00N 39°21' E 011°02'816.8
2017-May-17 13:29N 39°18' E 010°52'916.5
2017-May-17 12:58N 39°15' E 010°42'816.3
2017-May-17 12:30N 39°11' E 010°33'816.2
2017-May-17 12:00N 39°08' E 010°24'816.1
2017-May-17 11:29N 39°04' E 010°14'816.0
2017-May-17 10:59N 38°60' E 010°05'816.2
2017-May-17 10:30N 38°58' E 009°56'816.3
2017-May-17 10:00N 38°56' E 009°45'816.6
2017-May-17 09:30N 38°53' E 009°35'816.4
2017-May-17 08:59N 38°50' E 009°25'816.2
2017-May-17 08:29N 38°46' E 009°17'816.7
2017-May-17 07:59N 38°40' E 009°08'715.0
2017-May-17 07:30N 38°39' E 008°59'816.9
2017-May-17 07:00N 38°39' E 008°48'917.8
2017-May-17 06:30N 38°37' E 008°37'7018.1
2017-May-17 02:39N 38°19' E 007°11'1118.4
2017-May-17 02:04N 38°17' E 006°58'218.4
2017-May-17 02:00N 38°16' E 006°56'  
Track history (hours):
 
Tides and Currents Weather Stations Pressure Air Temp Water Temp Dewpoint Dewpoint Depression Visibility Wind Speed Wind Dir Waves Ship Positions

Budapest Bridge

Last reported at 2017-May-27 01:11 UTC. Time now 2017-May-27 17:39 UTC.
Position N 35°59' W 006°08'.

Length 268 m; draft 10.9 m.

Type: Ship (hazmat cat A). MMSI: 477434200.

Date/timePositionNaut miles runAvg speedWind from/ knotsBaromVisibWave heightAir tempDewpointWater temp
2017-May-27 01:11N 35°59' W 006°08'918.6
2017-May-27 00:42N 35°58' W 005°56'518.9
2017-May-27 00:27N 35°58' W 005°51'919.5
2017-May-27 00:00N 35°58' W 005°40'917.5
2017-May-26 23:30N 35°60' W 005°29'815.9
2017-May-26 23:00N 36°02' W 005°20'917.3
2017-May-26 22:30N 36°04' W 005°10'22017.1
2017-May-26 09:36N 37°22' W 000°52'418.0
2017-May-26 09:24N 37°24' W 000°49'818.0
2017-May-26 08:56N 37°29' W 000°41'818.2
2017-May-26 08:30N 37°35' W 000°33'917.8
2017-May-26 08:00N 37°42' W 000°27'917.8
2017-May-26 07:30N 37°50' W 000°23'917.7
2017-May-26 07:00N 37°57' W 000°16'917.7
2017-May-26 06:30N 38°04' W 000°09'917.9
2017-May-26 06:00N 38°12' W 000°03'1018.1
2017-May-26 05:28N 38°20' E 000°04'918.3
2017-May-26 05:00N 38°28' E 000°09'1517.9
2017-May-26 04:11N 38°40' E 000°20'318.0
2017-May-26 04:00N 38°42' E 000°22'918.1
2017-May-26 03:29N 38°50' E 000°30'1118.3
2017-May-26 02:53N 38°58' E 000°38'718.4
2017-May-26 02:30N 39°04' E 000°44'918.3
2017-May-26 02:00N 39°11' E 000°51'918.3
2017-May-26 01:30N 39°18' E 000°58'918.1
2017-May-26 01:00N 39°25' E 001°06'918.1
2017-May-26 00:30N 39°32' E 001°13'917.9
2017-May-26 00:00N 39°40' E 001°20'917.7
2017-May-25 23:30N 39°46' E 001°28'918.0
2017-May-25 23:00N 39°53' E 001°36'918.0
2017-May-25 22:30N 39°59' E 001°44'918.1
2017-May-25 22:00N 40°06' E 001°51'918.1
2017-May-25 21:30N 40°13' E 001°59'918.1
2017-May-25 21:00N 40°19' E 002°08'918.4
2017-May-25 20:30N 40°26' E 002°15'918.2
2017-May-25 20:00N 40°34' E 002°21'918.0
2017-May-25 19:30N 40°41' E 002°28'917.8
2017-May-25 19:00N 40°48' E 002°36'917.7
2017-May-25 18:30N 40°55' E 002°43'917.8
2017-May-25 18:00N 41°02' E 002°50'918.0
2017-May-25 17:30N 41°09' E 002°58'918.1
2017-May-25 17:00N 41°16' E 003°05'918.1
2017-May-25 16:30N 41°23' E 003°13'918.2
2017-May-25 16:00N 41°31' E 003°20'918.0
2017-May-25 15:30N 41°37' E 003°28'918.1
2017-May-25 15:00N 41°44' E 003°36'1918.2
2017-May-25 13:59N 41°59' E 003°51'918.3
2017-May-25 13:30N 42°06' E 003°58'918.2
2017-May-25 13:00N 42°14' E 004°05'1018.0
2017-May-25 12:28N 42°22' E 004°13'918.2
2017-May-25 11:57N 42°29' E 004°20'818.4
2017-May-25 11:29N 42°36' E 004°26'1018.7
2017-May-25 10:57N 42°45' E 004°34'818.5
2017-May-25 10:30N 42°51' E 004°41'1218.1
2017-May-25 09:51N 43°01' E 004°50'617.9
2017-May-25 09:30N 43°06' E 004°55'917.1
2017-May-25 08:59N 43°14' E 005°00'816.5
2017-May-25 08:30N 43°22' E 004°58'510.3
2017-May-25 08:00N 43°24' E 004°52'0 0.7
2017-May-25 07:27N 43°24' E 004°51'0 0.0
2017-May-25 06:54N 43°24' E 004°51'0 0.0
2017-May-25 06:18N 43°24' E 004°51'0 0.0
2017-May-25 05:57N 43°24' E 004°51'0 0.0
2017-May-25 05:18N 43°24' E 004°51'0 0.0
2017-May-25 04:48N 43°24' E 004°51'0 0.0
2017-May-25 04:21N 43°24' E 004°51'0 0.0
2017-May-25 04:00N 43°24' E 004°51'0 0.0
2017-May-25 03:30N 43°24' E 004°51'0 0.0
2017-May-25 02:57N 43°24' E 004°51'0 0.0
2017-May-25 00:57N 43°24' E 004°51'0 0.0
2017-May-25 00:27N 43°24' E 004°51'0 0.0
2017-May-24 23:57N 43°24' E 004°51'0 0.0
2017-May-24 23:18N 43°24' E 004°51'0 0.0
2017-May-24 22:27N 43°24' E 004°51'0 0.0
2017-May-24 22:00N 43°24' E 004°51'0 0.0
2017-May-24 21:24N 43°24' E 004°51'0 0.0
2017-May-24 21:00N 43°24' E 004°51'0 0.0
2017-May-24 20:27N 43°24' E 004°51'0 0.0
2017-May-24 20:00N 43°24' E 004°51'0 0.0
2017-May-24 19:24N 43°24' E 004°51'0 0.0
2017-May-24 19:00N 43°24' E 004°51'0 0.0
2017-May-24 18:30N 43°24' E 004°51'0 0.0
2017-May-24 17:48N 43°24' E 004°51'0 0.0
2017-May-24 16:30N 43°24' E 004°51'0 0.0
2017-May-24 16:00N 43°24' E 004°51'0 0.0
2017-May-24 15:30N 43°24' E 004°51'0 0.0
2017-May-24 14:57N 43°24' E 004°51'0 0.0
2017-May-24 14:30N 43°24' E 004°51'0 0.0
2017-May-24 13:30N 43°24' E 004°51'0 0.0
2017-May-24 13:00N 43°24' E 004°51'0 0.0
2017-May-24 12:30N 43°24' E 004°51'0 0.0
2017-May-24 12:00N 43°24' E 004°51'0 0.0
2017-May-24 11:30N 43°24' E 004°51'0 0.0
2017-May-24 11:00N 43°24' E 004°51'0 0.0
2017-May-24 10:30N 43°24' E 004°51'0 0.0
2017-May-24 05:45N 43°24' E 004°51'0 0.0
2017-May-24 05:30N 43°24' E 004°51'0 0.0
2017-May-24 05:00N 43°24' E 004°51'0 0.0
2017-May-24 04:30N 43°24' E 004°51'0 0.0
2017-May-24 04:00N 43°24' E 004°51'0 0.0
2017-May-24 03:30N 43°24' E 004°51'0 0.0
2017-May-24 03:00N 43°24' E 004°51'0 0.0
2017-May-24 02:30N 43°24' E 004°51'0 0.0
2017-May-24 02:00N 43°24' E 004°51'0 0.0
2017-May-24 01:30N 43°24' E 004°51'0 0.0
2017-May-24 01:00N 43°24' E 004°51'0 0.0
2017-May-24 00:30N 43°24' E 004°51'0 0.0
2017-May-24 00:00N 43°24' E 004°51'0 0.0
2017-May-23 23:30N 43°24' E 004°51'0 0.0
2017-May-23 23:00N 43°24' E 004°51'0 0.0
2017-May-23 22:30N 43°24' E 004°51'0 0.0
2017-May-23 22:00N 43°24' E 004°51'0 0.0
2017-May-23 21:30N 43°24' E 004°51'0 0.0
2017-May-23 21:00N 43°24' E 004°51'0 0.0
2017-May-23 20:24N 43°24' E 004°51'1 1.4
2017-May-23 20:01N 43°24' E 004°52'510.9
2017-May-23 19:31N 43°22' E 004°58'4 7.1
2017-May-23 19:00N 43°18' E 004°60'5 9.5
2017-May-23 18:31N 43°14' E 005°02'510.4
2017-May-23 18:01N 43°09' E 005°03'5 9.8
2017-May-23 17:30N 43°04' E 005°01'5 9.5
2017-May-23 17:01N 43°03' E 005°07'612.2
2017-May-23 16:30N 43°03' E 005°16'612.1
2017-May-23 16:01N 43°03' E 005°24'612.2
2017-May-23 15:31N 43°01' E 005°31'612.2
2017-May-23 15:00N 42°58' E 005°39'1312.5
2017-May-23 14:00N 42°52' E 005°54'3012.4
2017-May-23 11:36N 42°51' E 006°35'112.8
2017-May-23 11:30N 42°52' E 006°36'612.9
2017-May-23 11:00N 42°55' E 006°43'612.7
2017-May-23 10:30N 42°59' E 006°50'612.6
2017-May-23 10:00N 43°03' E 006°57'612.5
2017-May-23 09:30N 43°06' E 007°04'612.4
2017-May-23 09:00N 43°10' E 007°11'612.3
2017-May-23 08:30N 43°14' E 007°18'612.2
2017-May-23 08:00N 43°17' E 007°25'612.2
2017-May-23 07:30N 43°20' E 007°32'612.3
2017-May-23 07:00N 43°24' E 007°39'612.1
2017-May-23 06:30N 43°27' E 007°46'612.3
2017-May-23 06:00N 43°31' E 007°53'612.5
2017-May-23 05:30N 43°35' E 007°60'712.6
2017-May-23 04:57N 43°38' E 008°08'612.7
2017-May-23 04:30N 43°41' E 008°15'612.8
2017-May-23 04:00N 43°45' E 008°22'612.3
2017-May-23 03:30N 43°49' E 008°28'612.6
2017-May-23 03:00N 43°55' E 008°33'612.4
2017-May-23 02:30N 43°60' E 008°38'612.0
2017-May-23 02:00N 44°05' E 008°42'611.8
2017-May-23 01:30N 44°09' E 008°47'611.8
2017-May-23 01:00N 44°14' E 008°52'611.8
2017-May-23 00:30N 44°19' E 008°57'5 9.3
2017-May-23 00:00N 44°24' E 008°56'2 3.4
2017-May-22 23:30N 44°24' E 008°54'0 0.0
2017-May-22 23:00N 44°24' E 008°54'0 0.0
2017-May-22 22:30N 44°24' E 008°54'0 0.0
2017-May-22 22:00N 44°24' E 008°54'0 0.0
2017-May-22 21:30N 44°24' E 008°54'0 0.0
2017-May-22 21:00N 44°24' E 008°54'0 0.0
2017-May-22 20:30N 44°24' E 008°54'0 0.0
2017-May-22 20:00N 44°24' E 008°54'0 0.0
2017-May-22 19:30N 44°24' E 008°54'0 0.0
2017-May-22 19:00N 44°24' E 008°54'0 0.0
2017-May-22 18:30N 44°24' E 008°54'0 0.0
2017-May-22 18:00N 44°24' E 008°54'0 0.0
2017-May-22 17:24N 44°24' E 008°54'0 0.0
2017-May-22 16:57N 44°24' E 008°54'0 0.0
2017-May-22 16:30N 44°24' E 008°54'0 0.0
2017-May-22 16:00N 44°24' E 008°54'0 0.0
2017-May-22 15:30N 44°24' E 008°54'0 0.0
2017-May-22 14:57N 44°24' E 008°54'0 0.0
2017-May-22 13:57N 44°24' E 008°54'0 0.0
2017-May-22 13:30N 44°24' E 008°54'0 0.0
2017-May-22 13:00N 44°24' E 008°54'0 0.0
2017-May-22 12:30N 44°24' E 008°54'0 0.0
2017-May-22 12:00N 44°24' E 008°54'0 0.0
2017-May-22 11:30N 44°24' E 008°54'0 0.0
2017-May-22 11:00N 44°24' E 008°54'0 0.0
2017-May-22 10:30N 44°24' E 008°54'0 0.0
2017-May-22 10:00N 44°24' E 008°54'0 0.0
2017-May-22 09:30N 44°24' E 008°54'0 0.0
2017-May-22 09:00N 44°24' E 008°54'0 0.0
2017-May-22 08:24N 44°24' E 008°54'0 0.0
2017-May-22 08:00N 44°24' E 008°54'0 0.0
2017-May-22 07:30N 44°24' E 008°54'0 0.0
2017-May-22 07:00N 44°24' E 008°54'0 0.0
2017-May-22 06:30N 44°24' E 008°54'0 0.0
2017-May-22 06:00N 44°24' E 008°54'0 0.0
2017-May-22 05:30N 44°24' E 008°54'0 1.0
2017-May-22 05:00N 44°24' E 008°54'2 3.1
2017-May-22 04:30N 44°23' E 008°56'2 5.0
2017-May-22 04:00N 44°21' E 008°58'510.5
2017-May-22 03:30N 44°17' E 009°01'1 1.8
2017-May-22 03:00N 44°16' E 009°02'0 0.4
2017-May-22 02:30N 44°16' E 009°02'0 0.2
2017-May-22 02:00N 44°15' E 009°02'0 0.1
2017-May-22 01:30N 44°15' E 009°02'0 0.1
2017-May-22 01:00N 44°15' E 009°02'0 0.2
2017-May-22 00:30N 44°16' E 009°02'0 0.3
2017-May-22 00:00N 44°16' E 009°02'0 0.4
2017-May-21 23:30N 44°16' E 009°02'0 0.8
2017-May-21 23:00N 44°16' E 009°02'4 7.7
2017-May-21 22:30N 44°14' E 009°06'612.2
2017-May-21 22:00N 44°11' E 009°13'612.1
2017-May-21 21:30N 44°08' E 009°21'612.1
2017-May-21 21:00N 44°05' E 009°28'612.2
2017-May-21 20:30N 44°02' E 009°36'612.0
2017-May-21 20:00N 43°60' E 009°43'611.7
2017-May-21 19:31N 43°59' E 009°51'611.4
2017-May-21 19:00N 44°05' E 009°51'1 2.5
2017-May-21 18:29N 44°06' E 009°51'0 0.0
2017-May-21 17:50N 44°06' E 009°51'0 0.0
2017-May-21 17:29N 44°06' E 009°51'0 0.0
2017-May-21 16:59N 44°06' E 009°51'0 0.0
2017-May-21 16:29N 44°06' E 009°51'0 0.0
2017-May-21 15:56N 44°06' E 009°51'0 0.0
2017-May-21 15:26N 44°06' E 009°51'0 0.0
2017-May-21 14:59N 44°06' E 009°51'0 0.0
2017-May-21 14:29N 44°06' E 009°51'0 0.0
2017-May-21 13:29N 44°06' E 009°51'0 0.0
2017-May-21 12:59N 44°06' E 009°51'0 0.0
2017-May-21 12:29N 44°06' E 009°51'0 0.0
2017-May-21 11:59N 44°06' E 009°51'0 0.0
2017-May-21 11:29N 44°06' E 009°51'0 0.0
2017-May-21 10:59N 44°06' E 009°51'0 0.0
2017-May-21 10:29N 44°06' E 009°51'0 0.0
2017-May-21 09:59N 44°06' E 009°51'0 0.0
2017-May-21 09:29N 44°06' E 009°51'0 0.0
2017-May-21 08:59N 44°06' E 009°51'0 0.0
2017-May-21 08:29N 44°06' E 009°51'0 0.0
2017-May-21 07:50N 44°06' E 009°51'0 0.0
2017-May-21 07:29N 44°06' E 009°51'0 0.0
2017-May-21 06:53N 44°06' E 009°51'0 0.0
2017-May-21 06:29N 44°06' E 009°51'0 0.0
2017-May-21 05:59N 44°06' E 009°51'0 0.6
2017-May-21 05:31N 44°06' E 009°51'4 7.0
2017-May-21 05:00N 44°03' E 009°52'5 9.2
2017-May-21 04:30N 43°59' E 009°51'0 0.5
2017-May-21 04:00N 43°58' E 009°51'0 0.1
2017-May-21 03:30N 43°58' E 009°51'0 0.1
2017-May-21 03:00N 43°58' E 009°51'0 0.1
2017-May-21 02:30N 43°58' E 009°51'0 0.1
2017-May-21 02:00N 43°58' E 009°51'0 0.1
2017-May-21 01:30N 43°58' E 009°51'0 0.1
2017-May-21 01:00N 43°58' E 009°51'0 0.0
2017-May-21 00:30N 43°58' E 009°51'0 0.0
2017-May-21 00:00N 43°58' E 009°51'0 0.1
2017-May-20 23:30N 43°58' E 009°51'0 0.1
2017-May-20 23:00N 43°58' E 009°51'0 0.0
2017-May-20 22:30N 43°58' E 009°51'0 0.0
2017-May-20 22:00N 43°58' E 009°51'0 0.0
2017-May-20 21:30N 43°58' E 009°51'0 0.0
2017-May-20 21:00N 43°58' E 009°51'0 0.0
2017-May-20 20:30N 43°58' E 009°51'0 0.0
2017-May-20 20:00N 43°58' E 009°51'0 0.0
2017-May-20 19:30N 43°58' E 009°51'0 0.0
2017-May-20 19:00N 43°58' E 009°51'0 0.0
2017-May-20 18:27N 43°58' E 009°51'0 0.0
2017-May-20 18:00N 43°58' E 009°51'0 0.0
2017-May-20 17:30N 43°58' E 009°51'0 0.0
2017-May-20 17:00N 43°58' E 009°51'0 0.0
2017-May-20 16:27N 43°58' E 009°51'0 0.0
2017-May-20 16:00N 43°58' E 009°51'0 0.1
2017-May-20 15:30N 43°58' E 009°51'0 0.0
2017-May-20 15:00N 43°58' E 009°51'0 0.1
2017-May-20 14:30N 43°58' E 009°51'0 0.1
2017-May-20 13:30N 43°58' E 009°51'0 0.1
2017-May-20 13:00N 43°58' E 009°51'2 3.2
2017-May-20 12:30N 43°57' E 009°51'612.6
2017-May-20 12:00N 43°51' E 009°52'612.5
2017-May-20 11:30N 43°44' E 009°52'612.3
2017-May-20 11:00N 43°38' E 009°52'510.7
2017-May-20 10:30N 43°33' E 009°53'510.8
2017-May-20 10:00N 43°31' E 010°00'510.3
2017-May-20 09:30N 43°30' E 010°07'510.7
2017-May-20 09:01N 43°32' E 010°14'3 6.1
2017-May-20 08:30N 43°33' E 010°17'2 3.0
2017-May-20 07:59N 43°35' E 010°18'0 0.0
2017-May-20 07:29N 43°35' E 010°18'0 0.0
2017-May-20 06:59N 43°35' E 010°18'0 0.0
2017-May-20 06:29N 43°35' E 010°18'0 0.0
2017-May-20 05:59N 43°35' E 010°18'0 0.0
2017-May-20 05:29N 43°35' E 010°18'0 0.0
2017-May-20 04:59N 43°35' E 010°18'0 0.0
2017-May-20 04:29N 43°35' E 010°18'0 0.0
2017-May-20 03:59N 43°35' E 010°18'0 0.0
2017-May-20 03:26N 43°35' E 010°18'0 0.0
2017-May-20 02:59N 43°35' E 010°18'0 0.0
2017-May-20 02:29N 43°35' E 010°18'0 0.0
2017-May-20 01:56N 43°35' E 010°18'0 0.0
2017-May-20 01:26N 43°35' E 010°18'0 0.0
2017-May-20 00:59N 43°35' E 010°18'0 0.0
2017-May-20 00:29N 43°35' E 010°18'0 0.0
2017-May-19 23:59N 43°35' E 010°18'0 0.0
2017-May-19 23:29N 43°35' E 010°18'0 0.0
2017-May-19 22:59N 43°35' E 010°18'0 0.0
2017-May-19 22:29N 43°35' E 010°18'0 0.0
2017-May-19 21:59N 43°35' E 010°18'0 0.0
2017-May-19 21:26N 43°35' E 010°18'0 0.0
2017-May-19 20:59N 43°35' E 010°18'0 0.0
2017-May-19 20:29N 43°35' E 010°18'0 0.0
2017-May-19 19:59N 43°35' E 010°18'0 0.0
2017-May-19 19:29N 43°35' E 010°18'0 0.0
2017-May-19 18:59N 43°35' E 010°18'0 0.0
2017-May-19 18:29N 43°35' E 010°18'0 0.0
2017-May-19 17:59N 43°35' E 010°18'0 0.0
2017-May-19 17:26N 43°35' E 010°18'0 0.0
2017-May-19 16:59N 43°35' E 010°18'0 0.0
2017-May-19 16:29N 43°35' E 010°18'0 0.0
2017-May-19 15:59N 43°35' E 010°18'1 2.5
2017-May-19 15:30N 43°34' E 010°18'3 5.4
2017-May-19 15:00N 43°31' E 010°16'1 1.3
2017-May-19 14:00N 43°30' E 010°14'1 2.3
2017-May-19 13:30N 43°30' E 010°13'815.1
2017-May-19 13:00N 43°22' E 010°10'816.5
2017-May-19 12:30N 43°15' E 010°07'816.4
2017-May-19 12:00N 43°07' E 010°03'816.7
2017-May-19 11:30N 42°59' E 009°59'916.7
2017-May-19 10:58N 42°50' E 009°55'1316.5
2017-May-19 10:10N 42°38' E 009°51'617.1
2017-May-19 09:49N 42°32' E 009°49'617.7
2017-May-19 09:30N 42°27' E 009°52'917.7
2017-May-19 08:58N 42°19' E 009°59'917.5
2017-May-19 08:26N 42°13' E 010°09'817.9
2017-May-19 08:00N 42°09' E 010°18'918.1
2017-May-19 07:29N 42°03' E 010°28'918.2
2017-May-19 07:00N 41°58' E 010°38'918.0
2017-May-19 06:30N 41°53' E 010°48'1017.9
2017-May-19 05:57N 41°47' E 010°59'1317.6
2017-May-19 05:12N 41°40' E 011°13'417.8
2017-May-19 05:00N 41°38' E 011°17'917.5
2017-May-19 04:30N 41°32' E 011°26'917.6
2017-May-19 04:00N 41°28' E 011°36'917.7
2017-May-19 03:28N 41°23' E 011°47'817.7
2017-May-19 03:00N 41°17' E 011°55'917.8
2017-May-19 02:30N 41°12' E 012°05'917.7
2017-May-19 02:00N 41°07' E 012°14'917.7
2017-May-19 01:30N 41°01' E 012°23'917.5
2017-May-19 01:00N 40°56' E 012°33'917.7
2017-May-19 00:30N 40°51' E 012°42'917.6
2017-May-19 00:00N 40°46' E 012°52'3817.5
2017-May-18 21:48N 40°34' E 013°40'717.1
2017-May-18 21:24N 40°32' E 013°49'717.5
2017-May-18 20:59N 40°29' E 013°58'1017.5
2017-May-18 20:25N 40°28' E 014°10'817.7
2017-May-18 20:00N 40°30' E 014°20'23 1.1
2017-May-17 22:42N 40°19' E 013°53'316.0
2017-May-17 22:30N 40°18' E 013°49'916.3
2017-May-17 21:58N 40°15' E 013°39'816.0
2017-May-17 21:30N 40°12' E 013°30'816.1
2017-May-17 21:00N 40°08' E 013°20'816.3
2017-May-17 20:29N 40°05' E 013°10'816.3
2017-May-17 20:00N 40°02' E 013°01'916.2
2017-May-17 19:28N 39°58' E 012°50'816.4
2017-May-17 19:00N 39°55' E 012°41'1016.6
2017-May-17 18:24N 39°51' E 012°29'716.4
2017-May-17 18:00N 39°49' E 012°21'816.4
2017-May-17 17:30N 39°45' E 012°12'816.5
2017-May-17 17:00N 39°42' E 012°02'916.5
2017-May-17 16:27N 39°38' E 011°51'816.6
2017-May-17 15:59N 39°35' E 011°42'816.7
2017-May-17 15:29N 39°31' E 011°32'1018.3
2017-May-17 14:57N 39°27' E 011°20'1516.1
2017-May-17 14:00N 39°21' E 011°02'816.8
2017-May-17 13:29N 39°18' E 010°52'916.5
2017-May-17 12:58N 39°15' E 010°42'816.3
2017-May-17 12:30N 39°11' E 010°33'816.2
2017-May-17 12:00N 39°08' E 010°24'816.1
2017-May-17 11:29N 39°04' E 010°14'816.0
2017-May-17 10:59N 38°60' E 010°05'816.2
2017-May-17 10:30N 38°58' E 009°56'816.3
2017-May-17 10:00N 38°56' E 009°45'816.6
2017-May-17 09:30N 38°53' E 009°35'816.4
2017-May-17 08:59N 38°50' E 009°25'816.2
2017-May-17 08:29N 38°46' E 009°17'816.7
2017-May-17 07:59N 38°40' E 009°08'715.0
2017-May-17 07:30N 38°39' E 008°59'816.9
2017-May-17 07:00N 38°39' E 008°48'917.8
2017-May-17 06:30N 38°37' E 008°37'7018.1
2017-May-17 02:39N 38°19' E 007°11'1118.4
2017-May-17 02:04N 38°17' E 006°58'218.4
2017-May-17 02:00N 38°16' E 006°56'  

Dump ship's entire track history